sensor_id;sensor_type;location;lat;lon;timestamp;P1;durP1;ratioP1;P2;durP2;ratioP2
13147;SDS011;6639;50.956;4.242;2024-01-25T00:01:14;33.95;;;7.70;;
13147;SDS011;6639;50.956;4.242;2024-01-25T00:03:41;41.35;;;9.25;;
13147;SDS011;6639;50.956;4.242;2024-01-25T00:06:08;32.03;;;7.57;;
13147;SDS011;6639;50.956;4.242;2024-01-25T00:08:35;36.67;;;9.50;;
13147;SDS011;6639;50.956;4.242;2024-01-25T00:11:02;41.20;;;8.57;;
13147;SDS011;6639;50.956;4.242;2024-01-25T00:13:30;34.55;;;8.73;;
13147;SDS011;6639;50.956;4.242;2024-01-25T00:15:58;31.52;;;8.05;;
13147;SDS011;6639;50.956;4.242;2024-01-25T00:18:25;34.92;;;9.13;;
13147;SDS011;6639;50.956;4.242;2024-01-25T00:20:53;27.50;;;8.40;;
13147;SDS011;6639;50.956;4.242;2024-01-25T00:23:20;29.55;;;7.85;;
13147;SDS011;6639;50.956;4.242;2024-01-25T00:25:47;37.20;;;7.97;;
13147;SDS011;6639;50.956;4.242;2024-01-25T00:28:14;33.13;;;8.07;;
13147;SDS011;6639;50.956;4.242;2024-01-25T00:30:41;35.25;;;9.18;;
13147;SDS011;6639;50.956;4.242;2024-01-25T00:33:09;33.53;;;8.20;;
13147;SDS011;6639;50.956;4.242;2024-01-25T00:35:36;30.27;;;7.75;;
13147;SDS011;6639;50.956;4.242;2024-01-25T00:38:04;31.30;;;8.35;;
13147;SDS011;6639;50.956;4.242;2024-01-25T00:40:31;32.25;;;8.32;;
13147;SDS011;6639;50.956;4.242;2024-01-25T00:42:59;37.28;;;8.73;;
13147;SDS011;6639;50.956;4.242;2024-01-25T00:45:26;31.70;;;7.72;;
13147;SDS011;6639;50.956;4.242;2024-01-25T00:47:53;36.65;;;8.30;;
13147;SDS011;6639;50.956;4.242;2024-01-25T00:50:22;29.15;;;7.65;;
13147;SDS011;6639;50.956;4.242;2024-01-25T00:52:51;27.58;;;7.22;;
13147;SDS011;6639;50.956;4.242;2024-01-25T00:55:18;26.73;;;7.75;;
13147;SDS011;6639;50.956;4.242;2024-01-25T00:57:46;25.30;;;7.15;;
13147;SDS011;6639;50.956;4.242;2024-01-25T01:00:13;34.88;;;8.20;;
13147;SDS011;6639;50.956;4.242;2024-01-25T01:02:42;39.53;;;9.57;;
13147;SDS011;6639;50.956;4.242;2024-01-25T01:05:10;31.50;;;7.65;;
13147;SDS011;6639;50.956;4.242;2024-01-25T01:07:40;24.63;;;7.72;;
13147;SDS011;6639;50.956;4.242;2024-01-25T01:10:07;40.63;;;8.13;;
13147;SDS011;6639;50.956;4.242;2024-01-25T01:12:35;35.30;;;8.32;;
13147;SDS011;6639;50.956;4.242;2024-01-25T01:15:03;35.60;;;8.45;;
13147;SDS011;6639;50.956;4.242;2024-01-25T01:17:30;32.25;;;9.00;;
13147;SDS011;6639;50.956;4.242;2024-01-25T01:19:57;38.38;;;8.20;;
13147;SDS011;6639;50.956;4.242;2024-01-25T01:22:24;34.80;;;9.02;;
13147;SDS011;6639;50.956;4.242;2024-01-25T01:24:53;30.38;;;8.32;;
13147;SDS011;6639;50.956;4.242;2024-01-25T01:27:21;33.28;;;7.55;;
13147;SDS011;6639;50.956;4.242;2024-01-25T01:29:48;35.25;;;9.48;;
13147;SDS011;6639;50.956;4.242;2024-01-25T01:32:14;31.83;;;8.45;;
13147;SDS011;6639;50.956;4.242;2024-01-25T01:34:42;29.45;;;8.18;;
13147;SDS011;6639;50.956;4.242;2024-01-25T01:37:08;33.78;;;8.70;;
13147;SDS011;6639;50.956;4.242;2024-01-25T01:39:35;33.55;;;9.30;;
13147;SDS011;6639;50.956;4.242;2024-01-25T01:42:04;37.00;;;8.65;;
13147;SDS011;6639;50.956;4.242;2024-01-25T01:44:31;34.13;;;8.05;;
13147;SDS011;6639;50.956;4.242;2024-01-25T01:46:58;37.58;;;8.20;;
13147;SDS011;6639;50.956;4.242;2024-01-25T01:49:24;28.60;;;8.40;;
13147;SDS011;6639;50.956;4.242;2024-01-25T01:51:52;27.67;;;7.18;;
13147;SDS011;6639;50.956;4.242;2024-01-25T01:54:19;30.02;;;7.97;;
13147;SDS011;6639;50.956;4.242;2024-01-25T01:56:46;31.27;;;8.38;;
13147;SDS011;6639;50.956;4.242;2024-01-25T01:59:14;31.63;;;8.15;;
13147;SDS011;6639;50.956;4.242;2024-01-25T02:01:42;30.30;;;7.55;;
13147;SDS011;6639;50.956;4.242;2024-01-25T02:04:09;47.20;;;8.57;;
13147;SDS011;6639;50.956;4.242;2024-01-25T02:06:36;31.88;;;7.95;;
13147;SDS011;6639;50.956;4.242;2024-01-25T02:09:03;29.48;;;7.43;;
13147;SDS011;6639;50.956;4.242;2024-01-25T02:11:30;27.35;;;7.18;;
13147;SDS011;6639;50.956;4.242;2024-01-25T02:13:57;35.33;;;8.07;;
13147;SDS011;6639;50.956;4.242;2024-01-25T02:16:25;39.05;;;7.65;;
13147;SDS011;6639;50.956;4.242;2024-01-25T02:18:52;33.75;;;7.90;;
13147;SDS011;6639;50.956;4.242;2024-01-25T02:21:22;33.50;;;7.80;;
13147;SDS011;6639;50.956;4.242;2024-01-25T02:23:51;26.48;;;8.38;;
13147;SDS011;6639;50.956;4.242;2024-01-25T02:26:17;26.55;;;6.78;;
13147;SDS011;6639;50.956;4.242;2024-01-25T02:28:44;30.40;;;7.43;;
13147;SDS011;6639;50.956;4.242;2024-01-25T02:31:11;33.08;;;8.65;;
13147;SDS011;6639;50.956;4.242;2024-01-25T02:33:38;30.92;;;7.70;;
13147;SDS011;6639;50.956;4.242;2024-01-25T02:36:05;27.80;;;8.45;;
13147;SDS011;6639;50.956;4.242;2024-01-25T02:38:32;33.60;;;6.85;;
13147;SDS011;6639;50.956;4.242;2024-01-25T02:41:00;29.73;;;6.97;;
13147;SDS011;6639;50.956;4.242;2024-01-25T02:43:27;26.65;;;7.40;;
13147;SDS011;6639;50.956;4.242;2024-01-25T02:45:54;33.22;;;7.78;;
13147;SDS011;6639;50.956;4.242;2024-01-25T02:48:21;30.30;;;8.07;;
13147;SDS011;6639;50.956;4.242;2024-01-25T02:50:48;39.45;;;8.73;;
13147;SDS011;6639;50.956;4.242;2024-01-25T02:53:15;24.60;;;7.40;;
13147;SDS011;6639;50.956;4.242;2024-01-25T02:55:42;25.98;;;7.50;;
13147;SDS011;6639;50.956;4.242;2024-01-25T02:58:10;23.23;;;7.53;;
13147;SDS011;6639;50.956;4.242;2024-01-25T03:00:37;33.90;;;7.05;;
13147;SDS011;6639;50.956;4.242;2024-01-25T03:03:04;34.40;;;7.60;;
13147;SDS011;6639;50.956;4.242;2024-01-25T03:05:32;26.27;;;7.38;;
13147;SDS011;6639;50.956;4.242;2024-01-25T03:07:59;23.15;;;7.88;;
13147;SDS011;6639;50.956;4.242;2024-01-25T03:10:26;33.88;;;6.78;;
13147;SDS011;6639;50.956;4.242;2024-01-25T03:12:53;29.30;;;7.05;;
13147;SDS011;6639;50.956;4.242;2024-01-25T03:15:22;28.63;;;7.35;;
13147;SDS011;6639;50.956;4.242;2024-01-25T03:17:48;35.55;;;7.68;;
13147;SDS011;6639;50.956;4.242;2024-01-25T03:20:15;27.20;;;7.05;;
13147;SDS011;6639;50.956;4.242;2024-01-25T03:22:42;27.50;;;6.85;;
13147;SDS011;6639;50.956;4.242;2024-01-25T03:25:10;37.03;;;7.05;;
13147;SDS011;6639;50.956;4.242;2024-01-25T03:27:37;32.08;;;7.75;;
13147;SDS011;6639;50.956;4.242;2024-01-25T03:30:04;22.92;;;7.45;;
13147;SDS011;6639;50.956;4.242;2024-01-25T03:32:34;25.27;;;7.43;;
13147;SDS011;6639;50.956;4.242;2024-01-25T03:35:01;29.50;;;7.50;;
13147;SDS011;6639;50.956;4.242;2024-01-25T03:37:29;28.45;;;6.30;;
13147;SDS011;6639;50.956;4.242;2024-01-25T03:39:55;21.52;;;6.07;;
13147;SDS011;6639;50.956;4.242;2024-01-25T03:42:22;24.52;;;6.72;;
13147;SDS011;6639;50.956;4.242;2024-01-25T03:44:49;30.23;;;8.10;;
13147;SDS011;6639;50.956;4.242;2024-01-25T03:47:18;24.27;;;7.30;;
13147;SDS011;6639;50.956;4.242;2024-01-25T03:49:46;31.20;;;6.70;;
13147;SDS011;6639;50.956;4.242;2024-01-25T03:52:13;26.95;;;6.85;;
13147;SDS011;6639;50.956;4.242;2024-01-25T03:54:40;22.40;;;5.90;;
13147;SDS011;6639;50.956;4.242;2024-01-25T03:57:07;27.02;;;7.28;;
13147;SDS011;6639;50.956;4.242;2024-01-25T03:59:34;25.40;;;6.22;;
13147;SDS011;6639;50.956;4.242;2024-01-25T04:02:00;28.85;;;7.20;;
13147;SDS011;6639;50.956;4.242;2024-01-25T04:04:27;19.92;;;6.20;;
13147;SDS011;6639;50.956;4.242;2024-01-25T04:06:56;28.60;;;8.20;;
13147;SDS011;6639;50.956;4.242;2024-01-25T04:09:22;25.05;;;6.63;;
13147;SDS011;6639;50.956;4.242;2024-01-25T04:11:49;26.08;;;6.20;;
13147;SDS011;6639;50.956;4.242;2024-01-25T04:14:16;22.65;;;6.57;;
13147;SDS011;6639;50.956;4.242;2024-01-25T04:16:43;21.65;;;5.22;;
13147;SDS011;6639;50.956;4.242;2024-01-25T04:19:11;17.85;;;4.75;;
13147;SDS011;6639;50.956;4.242;2024-01-25T04:21:38;24.75;;;6.55;;
13147;SDS011;6639;50.956;4.242;2024-01-25T04:24:06;26.13;;;7.45;;
13147;SDS011;6639;50.956;4.242;2024-01-25T04:26:33;18.92;;;5.72;;
13147;SDS011;6639;50.956;4.242;2024-01-25T04:29:01;26.88;;;6.57;;
13147;SDS011;6639;50.956;4.242;2024-01-25T04:31:27;27.40;;;7.13;;
13147;SDS011;6639;50.956;4.242;2024-01-25T04:33:54;27.83;;;6.55;;
13147;SDS011;6639;50.956;4.242;2024-01-25T04:36:21;21.27;;;6.57;;
13147;SDS011;6639;50.956;4.242;2024-01-25T04:38:48;30.40;;;6.18;;
13147;SDS011;6639;50.956;4.242;2024-01-25T04:41:16;25.33;;;6.57;;
13147;SDS011;6639;50.956;4.242;2024-01-25T04:43:44;22.42;;;6.40;;
13147;SDS011;6639;50.956;4.242;2024-01-25T04:46:12;27.85;;;7.10;;
13147;SDS011;6639;50.956;4.242;2024-01-25T04:48:39;25.90;;;5.93;;
13147;SDS011;6639;50.956;4.242;2024-01-25T04:51:06;25.88;;;6.72;;
13147;SDS011;6639;50.956;4.242;2024-01-25T04:53:33;30.63;;;7.10;;
13147;SDS011;6639;50.956;4.242;2024-01-25T04:55:59;26.42;;;6.30;;
13147;SDS011;6639;50.956;4.242;2024-01-25T04:58:28;24.90;;;6.55;;
13147;SDS011;6639;50.956;4.242;2024-01-25T05:00:55;30.60;;;7.45;;
13147;SDS011;6639;50.956;4.242;2024-01-25T05:03:21;29.48;;;6.70;;
13147;SDS011;6639;50.956;4.242;2024-01-25T05:05:48;26.58;;;7.07;;
13147;SDS011;6639;50.956;4.242;2024-01-25T05:08:15;26.45;;;6.53;;
13147;SDS011;6639;50.956;4.242;2024-01-25T05:10:42;34.42;;;7.47;;
13147;SDS011;6639;50.956;4.242;2024-01-25T05:13:09;31.38;;;7.32;;
13147;SDS011;6639;50.956;4.242;2024-01-25T05:15:37;29.10;;;6.80;;
13147;SDS011;6639;50.956;4.242;2024-01-25T05:18:03;24.80;;;6.32;;
13147;SDS011;6639;50.956;4.242;2024-01-25T05:20:31;26.60;;;6.30;;
13147;SDS011;6639;50.956;4.242;2024-01-25T05:22:59;31.98;;;7.60;;
13147;SDS011;6639;50.956;4.242;2024-01-25T05:25:26;32.20;;;7.65;;
13147;SDS011;6639;50.956;4.242;2024-01-25T05:27:53;26.00;;;8.75;;
13147;SDS011;6639;50.956;4.242;2024-01-25T05:30:20;27.40;;;7.22;;
13147;SDS011;6639;50.956;4.242;2024-01-25T05:32:48;29.15;;;7.53;;
13147;SDS011;6639;50.956;4.242;2024-01-25T05:35:15;34.58;;;7.05;;
13147;SDS011;6639;50.956;4.242;2024-01-25T05:37:43;28.13;;;7.18;;
13147;SDS011;6639;50.956;4.242;2024-01-25T05:40:10;23.77;;;6.55;;
13147;SDS011;6639;50.956;4.242;2024-01-25T05:42:37;26.30;;;6.90;;
13147;SDS011;6639;50.956;4.242;2024-01-25T05:45:05;25.70;;;6.82;;
13147;SDS011;6639;50.956;4.242;2024-01-25T05:47:33;33.40;;;7.38;;
13147;SDS011;6639;50.956;4.242;2024-01-25T05:50:02;33.67;;;7.75;;
13147;SDS011;6639;50.956;4.242;2024-01-25T05:52:29;26.60;;;7.40;;
13147;SDS011;6639;50.956;4.242;2024-01-25T05:54:56;24.23;;;7.28;;
13147;SDS011;6639;50.956;4.242;2024-01-25T05:57:23;24.95;;;6.55;;
13147;SDS011;6639;50.956;4.242;2024-01-25T05:59:51;29.90;;;7.93;;
13147;SDS011;6639;50.956;4.242;2024-01-25T06:02:18;32.40;;;8.50;;
13147;SDS011;6639;50.956;4.242;2024-01-25T06:04:45;26.90;;;6.57;;
13147;SDS011;6639;50.956;4.242;2024-01-25T06:07:13;31.40;;;7.93;;
13147;SDS011;6639;50.956;4.242;2024-01-25T06:09:40;20.00;;;5.88;;
13147;SDS011;6639;50.956;4.242;2024-01-25T06:12:07;26.38;;;6.88;;
13147;SDS011;6639;50.956;4.242;2024-01-25T06:14:34;31.58;;;7.38;;
13147;SDS011;6639;50.956;4.242;2024-01-25T06:17:01;34.22;;;7.72;;
13147;SDS011;6639;50.956;4.242;2024-01-25T06:19:28;31.60;;;7.93;;
13147;SDS011;6639;50.956;4.242;2024-01-25T06:21:55;31.13;;;7.85;;
13147;SDS011;6639;50.956;4.242;2024-01-25T06:24:23;31.30;;;8.63;;
13147;SDS011;6639;50.956;4.242;2024-01-25T06:26:50;27.85;;;7.53;;
13147;SDS011;6639;50.956;4.242;2024-01-25T06:29:17;31.08;;;8.18;;
13147;SDS011;6639;50.956;4.242;2024-01-25T06:31:44;37.63;;;8.27;;
13147;SDS011;6639;50.956;4.242;2024-01-25T06:34:11;30.20;;;8.60;;
13147;SDS011;6639;50.956;4.242;2024-01-25T06:36:38;39.13;;;9.02;;
13147;SDS011;6639;50.956;4.242;2024-01-25T06:39:05;31.50;;;7.57;;
13147;SDS011;6639;50.956;4.242;2024-01-25T06:41:33;28.27;;;8.10;;
13147;SDS011;6639;50.956;4.242;2024-01-25T06:44:00;29.90;;;8.52;;
13147;SDS011;6639;50.956;4.242;2024-01-25T06:46:28;39.38;;;8.73;;
13147;SDS011;6639;50.956;4.242;2024-01-25T06:48:55;30.00;;;7.43;;
13147;SDS011;6639;50.956;4.242;2024-01-25T06:51:21;36.80;;;9.50;;
13147;SDS011;6639;50.956;4.242;2024-01-25T06:53:49;30.75;;;8.60;;
13147;SDS011;6639;50.956;4.242;2024-01-25T06:56:18;32.72;;;8.55;;
13147;SDS011;6639;50.956;4.242;2024-01-25T06:58:47;38.67;;;8.75;;
13147;SDS011;6639;50.956;4.242;2024-01-25T07:01:14;24.73;;;8.63;;
13147;SDS011;6639;50.956;4.242;2024-01-25T07:03:48;34.53;;;8.40;;
13147;SDS011;6639;50.956;4.242;2024-01-25T07:06:20;25.67;;;8.73;;
13147;SDS011;6639;50.956;4.242;2024-01-25T07:08:51;31.38;;;9.68;;
13147;SDS011;6639;50.956;4.242;2024-01-25T07:11:19;30.95;;;10.18;;
13147;SDS011;6639;50.956;4.242;2024-01-25T07:13:47;33.85;;;9.38;;
13147;SDS011;6639;50.956;4.242;2024-01-25T07:16:16;38.03;;;10.65;;
13147;SDS011;6639;50.956;4.242;2024-01-25T07:18:52;38.80;;;10.60;;
13147;SDS011;6639;50.956;4.242;2024-01-25T07:21:19;38.35;;;10.77;;
13147;SDS011;6639;50.956;4.242;2024-01-25T07:23:55;36.92;;;10.57;;
13147;SDS011;6639;50.956;4.242;2024-01-25T07:26:24;44.58;;;11.18;;
13147;SDS011;6639;50.956;4.242;2024-01-25T07:28:56;36.40;;;10.38;;
13147;SDS011;6639;50.956;4.242;2024-01-25T07:31:24;24.20;;;9.02;;
13147;SDS011;6639;50.956;4.242;2024-01-25T07:33:53;31.70;;;9.95;;
13147;SDS011;6639;50.956;4.242;2024-01-25T07:36:21;32.17;;;8.35;;
13147;SDS011;6639;50.956;4.242;2024-01-25T07:38:48;16.63;;;8.10;;
13147;SDS011;6639;50.956;4.242;2024-01-25T07:41:15;16.63;;;7.60;;
13147;SDS011;6639;50.956;4.242;2024-01-25T07:43:42;31.75;;;8.82;;
13147;SDS011;6639;50.956;4.242;2024-01-25T07:46:11;17.95;;;8.75;;
13147;SDS011;6639;50.956;4.242;2024-01-25T07:48:39;22.63;;;9.27;;
13147;SDS011;6639;50.956;4.242;2024-01-25T07:51:10;17.83;;;7.63;;
13147;SDS011;6639;50.956;4.242;2024-01-25T07:53:38;27.65;;;9.10;;
13147;SDS011;6639;50.956;4.242;2024-01-25T07:56:06;23.85;;;9.10;;
13147;SDS011;6639;50.956;4.242;2024-01-25T07:58:35;17.15;;;8.38;;
13147;SDS011;6639;50.956;4.242;2024-01-25T08:01:02;20.52;;;9.75;;
13147;SDS011;6639;50.956;4.242;2024-01-25T08:03:32;22.35;;;9.18;;
13147;SDS011;6639;50.956;4.242;2024-01-25T08:05:59;20.23;;;8.77;;
13147;SDS011;6639;50.956;4.242;2024-01-25T08:08:28;14.48;;;7.80;;
13147;SDS011;6639;50.956;4.242;2024-01-25T08:10:55;12.85;;;9.13;;
13147;SDS011;6639;50.956;4.242;2024-01-25T08:13:22;23.20;;;8.43;;
13147;SDS011;6639;50.956;4.242;2024-01-25T08:15:49;19.67;;;8.48;;
13147;SDS011;6639;50.956;4.242;2024-01-25T08:18:15;22.65;;;9.05;;
13147;SDS011;6639;50.956;4.242;2024-01-25T08:20:45;14.07;;;8.48;;
13147;SDS011;6639;50.956;4.242;2024-01-25T08:23:12;12.77;;;8.65;;
13147;SDS011;6639;50.956;4.242;2024-01-25T08:25:39;16.25;;;8.32;;
13147;SDS011;6639;50.956;4.242;2024-01-25T08:28:06;18.90;;;8.40;;
13147;SDS011;6639;50.956;4.242;2024-01-25T08:30:33;19.92;;;8.48;;
13147;SDS011;6639;50.956;4.242;2024-01-25T08:33:00;15.82;;;8.35;;
13147;SDS011;6639;50.956;4.242;2024-01-25T08:35:27;12.27;;;7.82;;
13147;SDS011;6639;50.956;4.242;2024-01-25T08:37:56;16.27;;;8.82;;
13147;SDS011;6639;50.956;4.242;2024-01-25T08:40:23;21.60;;;8.73;;
13147;SDS011;6639;50.956;4.242;2024-01-25T08:42:50;22.60;;;8.88;;
13147;SDS011;6639;50.956;4.242;2024-01-25T08:45:17;28.92;;;9.63;;
13147;SDS011;6639;50.956;4.242;2024-01-25T08:47:44;17.25;;;8.57;;
13147;SDS011;6639;50.956;4.242;2024-01-25T08:50:11;16.70;;;9.48;;
13147;SDS011;6639;50.956;4.242;2024-01-25T08:52:38;17.38;;;9.88;;
13147;SDS011;6639;50.956;4.242;2024-01-25T08:55:07;17.17;;;8.55;;
13147;SDS011;6639;50.956;4.242;2024-01-25T08:57:36;11.80;;;8.95;;
13147;SDS011;6639;50.956;4.242;2024-01-25T09:00:03;16.63;;;8.48;;
13147;SDS011;6639;50.956;4.242;2024-01-25T09:02:35;21.80;;;9.27;;
13147;SDS011;6639;50.956;4.242;2024-01-25T09:05:02;16.17;;;8.57;;
13147;SDS011;6639;50.956;4.242;2024-01-25T09:07:30;14.13;;;9.93;;
13147;SDS011;6639;50.956;4.242;2024-01-25T09:09:57;14.85;;;8.73;;
13147;SDS011;6639;50.956;4.242;2024-01-25T09:12:25;24.17;;;10.00;;
13147;SDS011;6639;50.956;4.242;2024-01-25T09:14:52;20.35;;;10.27;;
13147;SDS011;6639;50.956;4.242;2024-01-25T09:17:19;18.23;;;10.32;;
13147;SDS011;6639;50.956;4.242;2024-01-25T09:19:47;17.95;;;10.27;;
13147;SDS011;6639;50.956;4.242;2024-01-25T09:22:16;25.45;;;10.38;;
13147;SDS011;6639;50.956;4.242;2024-01-25T09:24:44;20.67;;;10.82;;
13147;SDS011;6639;50.956;4.242;2024-01-25T09:27:11;22.63;;;10.85;;
13147;SDS011;6639;50.956;4.242;2024-01-25T09:29:40;27.98;;;11.80;;
13147;SDS011;6639;50.956;4.242;2024-01-25T09:32:07;20.30;;;11.27;;
13147;SDS011;6639;50.956;4.242;2024-01-25T09:34:34;24.88;;;11.07;;
13147;SDS011;6639;50.956;4.242;2024-01-25T09:37:02;27.60;;;12.15;;
13147;SDS011;6639;50.956;4.242;2024-01-25T09:39:29;21.45;;;10.13;;
13147;SDS011;6639;50.956;4.242;2024-01-25T09:41:57;24.33;;;10.90;;
13147;SDS011;6639;50.956;4.242;2024-01-25T09:44:24;34.65;;;12.00;;
13147;SDS011;6639;50.956;4.242;2024-01-25T09:46:52;27.13;;;11.23;;
13147;SDS011;6639;50.956;4.242;2024-01-25T09:49:20;21.13;;;11.75;;
13147;SDS011;6639;50.956;4.242;2024-01-25T09:51:48;26.48;;;11.85;;
13147;SDS011;6639;50.956;4.242;2024-01-25T09:54:18;27.23;;;13.18;;
13147;SDS011;6639;50.956;4.242;2024-01-25T09:56:45;30.75;;;12.77;;
13147;SDS011;6639;50.956;4.242;2024-01-25T09:59:16;28.92;;;12.63;;
13147;SDS011;6639;50.956;4.242;2024-01-25T10:01:43;32.35;;;13.10;;
13147;SDS011;6639;50.956;4.242;2024-01-25T10:04:12;22.00;;;11.18;;
13147;SDS011;6639;50.956;4.242;2024-01-25T10:06:40;29.35;;;12.50;;
13147;SDS011;6639;50.956;4.242;2024-01-25T10:09:07;24.30;;;11.40;;
13147;SDS011;6639;50.956;4.242;2024-01-25T10:11:35;31.50;;;11.77;;
13147;SDS011;6639;50.956;4.242;2024-01-25T10:14:04;25.45;;;11.70;;
13147;SDS011;6639;50.956;4.242;2024-01-25T10:16:33;29.50;;;12.38;;
13147;SDS011;6639;50.956;4.242;2024-01-25T10:19:01;29.70;;;11.73;;
13147;SDS011;6639;50.956;4.242;2024-01-25T10:21:35;33.50;;;12.98;;
13147;SDS011;6639;50.956;4.242;2024-01-25T10:24:02;27.67;;;13.30;;
13147;SDS011;6639;50.956;4.242;2024-01-25T10:26:31;28.95;;;12.85;;
13147;SDS011;6639;50.956;4.242;2024-01-25T10:29:00;35.03;;;13.07;;
13147;SDS011;6639;50.956;4.242;2024-01-25T10:31:28;33.80;;;13.18;;
13147;SDS011;6639;50.956;4.242;2024-01-25T10:33:56;30.55;;;13.57;;
13147;SDS011;6639;50.956;4.242;2024-01-25T10:36:24;28.67;;;14.98;;
13147;SDS011;6639;50.956;4.242;2024-01-25T10:38:55;30.20;;;14.88;;
13147;SDS011;6639;50.956;4.242;2024-01-25T10:41:23;29.02;;;13.48;;
13147;SDS011;6639;50.956;4.242;2024-01-25T10:43:51;30.65;;;12.90;;
13147;SDS011;6639;50.956;4.242;2024-01-25T10:46:18;32.83;;;14.10;;
13147;SDS011;6639;50.956;4.242;2024-01-25T10:48:45;31.13;;;13.45;;
13147;SDS011;6639;50.956;4.242;2024-01-25T10:51:13;33.88;;;13.25;;
13147;SDS011;6639;50.956;4.242;2024-01-25T10:53:43;27.92;;;12.98;;
13147;SDS011;6639;50.956;4.242;2024-01-25T10:56:12;30.30;;;14.07;;
13147;SDS011;6639;50.956;4.242;2024-01-25T10:58:40;37.90;;;14.88;;
13147;SDS011;6639;50.956;4.242;2024-01-25T11:01:08;42.65;;;16.52;;
13147;SDS011;6639;50.956;4.242;2024-01-25T11:03:36;42.83;;;16.65;;
13147;SDS011;6639;50.956;4.242;2024-01-25T11:06:06;44.13;;;18.85;;
13147;SDS011;6639;50.956;4.242;2024-01-25T11:08:34;47.08;;;19.40;;
13147;SDS011;6639;50.956;4.242;2024-01-25T11:11:03;42.75;;;18.52;;
13147;SDS011;6639;50.956;4.242;2024-01-25T11:13:36;43.50;;;18.42;;
13147;SDS011;6639;50.956;4.242;2024-01-25T11:16:11;43.38;;;18.13;;
13147;SDS011;6639;50.956;4.242;2024-01-25T11:18:49;49.67;;;18.98;;
13147;SDS011;6639;50.956;4.242;2024-01-25T11:21:25;50.72;;;18.95;;
13147;SDS011;6639;50.956;4.242;2024-01-25T11:24:00;38.72;;;17.88;;
13147;SDS011;6639;50.956;4.242;2024-01-25T11:26:27;42.40;;;17.48;;
13147;SDS011;6639;50.956;4.242;2024-01-25T11:28:58;43.10;;;18.27;;
13147;SDS011;6639;50.956;4.242;2024-01-25T11:31:26;38.47;;;17.25;;
13147;SDS011;6639;50.956;4.242;2024-01-25T11:33:56;34.50;;;16.15;;
13147;SDS011;6639;50.956;4.242;2024-01-25T11:36:23;29.65;;;15.88;;
13147;SDS011;6639;50.956;4.242;2024-01-25T11:38:51;38.42;;;17.05;;
13147;SDS011;6639;50.956;4.242;2024-01-25T11:41:18;39.05;;;20.15;;
13147;SDS011;6639;50.956;4.242;2024-01-25T11:43:45;31.65;;;17.02;;
13147;SDS011;6639;50.956;4.242;2024-01-25T11:46:15;33.25;;;12.95;;
13147;SDS011;6639;50.956;4.242;2024-01-25T11:48:43;32.50;;;14.10;;
13147;SDS011;6639;50.956;4.242;2024-01-25T11:51:10;30.92;;;13.82;;
13147;SDS011;6639;50.956;4.242;2024-01-25T11:53:38;32.78;;;12.77;;
13147;SDS011;6639;50.956;4.242;2024-01-25T11:56:06;34.83;;;12.20;;
13147;SDS011;6639;50.956;4.242;2024-01-25T11:58:35;23.40;;;11.52;;
13147;SDS011;6639;50.956;4.242;2024-01-25T12:01:03;23.05;;;10.88;;
13147;SDS011;6639;50.956;4.242;2024-01-25T12:03:35;28.77;;;10.88;;
13147;SDS011;6639;50.956;4.242;2024-01-25T12:06:02;28.10;;;10.57;;
13147;SDS011;6639;50.956;4.242;2024-01-25T12:08:31;26.30;;;10.07;;
13147;SDS011;6639;50.956;4.242;2024-01-25T12:11:04;29.77;;;10.82;;
13147;SDS011;6639;50.956;4.242;2024-01-25T12:13:33;21.35;;;8.68;;
13147;SDS011;6639;50.956;4.242;2024-01-25T12:16:01;21.48;;;9.32;;
13147;SDS011;6639;50.956;4.242;2024-01-25T12:18:29;22.70;;;8.55;;
13147;SDS011;6639;50.956;4.242;2024-01-25T12:20:59;25.52;;;9.15;;
13147;SDS011;6639;50.956;4.242;2024-01-25T12:23:32;18.40;;;7.97;;
13147;SDS011;6639;50.956;4.242;2024-01-25T12:26:00;20.88;;;9.70;;
13147;SDS011;6639;50.956;4.242;2024-01-25T12:28:28;24.70;;;8.05;;
13147;SDS011;6639;50.956;4.242;2024-01-25T12:30:57;20.63;;;8.43;;
13147;SDS011;6639;50.956;4.242;2024-01-25T12:33:24;20.83;;;7.18;;
13147;SDS011;6639;50.956;4.242;2024-01-25T12:35:51;16.08;;;6.95;;
13147;SDS011;6639;50.956;4.242;2024-01-25T12:38:20;17.13;;;7.53;;
13147;SDS011;6639;50.956;4.242;2024-01-25T12:40:47;15.38;;;7.95;;
13147;SDS011;6639;50.956;4.242;2024-01-25T12:43:15;22.80;;;8.90;;
13147;SDS011;6639;50.956;4.242;2024-01-25T12:45:44;13.77;;;7.22;;
13147;SDS011;6639;50.956;4.242;2024-01-25T12:48:11;15.98;;;8.15;;
13147;SDS011;6639;50.956;4.242;2024-01-25T12:50:39;20.45;;;10.30;;
13147;SDS011;6639;50.956;4.242;2024-01-25T12:53:06;16.85;;;11.15;;
13147;SDS011;6639;50.956;4.242;2024-01-25T12:55:34;16.33;;;9.25;;
13147;SDS011;6639;50.956;4.242;2024-01-25T12:58:01;13.52;;;6.90;;
13147;SDS011;6639;50.956;4.242;2024-01-25T13:00:28;13.15;;;8.65;;
13147;SDS011;6639;50.956;4.242;2024-01-25T13:02:55;12.88;;;8.85;;
13147;SDS011;6639;50.956;4.242;2024-01-25T13:05:22;11.65;;;6.70;;
13147;SDS011;6639;50.956;4.242;2024-01-25T13:07:49;17.27;;;9.38;;
13147;SDS011;6639;50.956;4.242;2024-01-25T13:10:17;17.75;;;11.60;;
13147;SDS011;6639;50.956;4.242;2024-01-25T13:12:45;14.82;;;9.38;;
13147;SDS011;6639;50.956;4.242;2024-01-25T13:15:12;10.43;;;7.00;;
13147;SDS011;6639;50.956;4.242;2024-01-25T13:17:39;10.80;;;5.97;;
13147;SDS011;6639;50.956;4.242;2024-01-25T13:20:07;9.18;;;5.75;;
13147;SDS011;6639;50.956;4.242;2024-01-25T13:22:34;11.20;;;6.65;;
13147;SDS011;6639;50.956;4.242;2024-01-25T13:25:01;13.00;;;5.95;;
13147;SDS011;6639;50.956;4.242;2024-01-25T13:27:29;12.68;;;6.15;;
13147;SDS011;6639;50.956;4.242;2024-01-25T13:29:57;8.27;;;5.70;;
13147;SDS011;6639;50.956;4.242;2024-01-25T13:32:24;10.32;;;5.95;;
13147;SDS011;6639;50.956;4.242;2024-01-25T13:34:57;7.82;;;6.50;;
13147;SDS011;6639;50.956;4.242;2024-01-25T13:37:24;13.35;;;8.40;;
13147;SDS011;6639;50.956;4.242;2024-01-25T13:39:50;14.55;;;7.72;;
13147;SDS011;6639;50.956;4.242;2024-01-25T13:42:17;17.20;;;11.65;;
13147;SDS011;6639;50.956;4.242;2024-01-25T13:44:44;14.93;;;9.77;;
13147;SDS011;6639;50.956;4.242;2024-01-25T13:47:12;13.48;;;7.45;;
13147;SDS011;6639;50.956;4.242;2024-01-25T13:49:39;14.48;;;7.28;;
13147;SDS011;6639;50.956;4.242;2024-01-25T13:52:06;14.30;;;8.02;;
13147;SDS011;6639;50.956;4.242;2024-01-25T13:54:42;12.40;;;7.03;;
13147;SDS011;6639;50.956;4.242;2024-01-25T13:57:09;11.07;;;6.90;;
13147;SDS011;6639;50.956;4.242;2024-01-25T13:59:36;11.07;;;6.75;;
13147;SDS011;6639;50.956;4.242;2024-01-25T14:02:03;14.80;;;7.72;;
13147;SDS011;6639;50.956;4.242;2024-01-25T14:04:31;9.23;;;6.50;;
13147;SDS011;6639;50.956;4.242;2024-01-25T14:06:58;10.43;;;6.13;;
13147;SDS011;6639;50.956;4.242;2024-01-25T14:09:27;8.52;;;6.28;;
13147;SDS011;6639;50.956;4.242;2024-01-25T14:11:56;8.98;;;5.80;;
13147;SDS011;6639;50.956;4.242;2024-01-25T14:14:23;10.52;;;6.50;;
13147;SDS011;6639;50.956;4.242;2024-01-25T14:16:50;9.27;;;5.97;;
13147;SDS011;6639;50.956;4.242;2024-01-25T14:19:16;9.55;;;6.35;;
13147;SDS011;6639;50.956;4.242;2024-01-25T14:21:46;9.55;;;6.35;;
13147;SDS011;6639;50.956;4.242;2024-01-25T14:24:14;12.00;;;6.85;;
13147;SDS011;6639;50.956;4.242;2024-01-25T14:26:41;8.15;;;6.65;;
13147;SDS011;6639;50.956;4.242;2024-01-25T14:29:09;10.20;;;6.82;;
13147;SDS011;6639;50.956;4.242;2024-01-25T14:31:36;10.80;;;6.72;;
13147;SDS011;6639;50.956;4.242;2024-01-25T14:34:03;8.35;;;6.30;;
13147;SDS011;6639;50.956;4.242;2024-01-25T14:36:29;8.95;;;7.13;;
13147;SDS011;6639;50.956;4.242;2024-01-25T14:38:58;11.00;;;7.03;;
13147;SDS011;6639;50.956;4.242;2024-01-25T14:41:25;10.73;;;7.78;;
13147;SDS011;6639;50.956;4.242;2024-01-25T14:43:51;9.77;;;6.78;;
13147;SDS011;6639;50.956;4.242;2024-01-25T14:46:18;12.15;;;7.78;;
13147;SDS011;6639;50.956;4.242;2024-01-25T14:48:45;11.63;;;8.05;;